createdAt,value
2023-01-27T00:03:39.100Z,79.20
2023-01-27T00:07:45.839Z,81.97
2023-01-27T00:12:05.973Z,77.78
2023-01-27T00:16:08.079Z,90.07
2023-01-27T00:20:11.182Z,93.72
2023-01-27T00:24:32.045Z,83.47
2023-01-27T00:28:38.622Z,86.95
2023-01-27T00:32:59.101Z,85.28
2023-01-27T00:37:01.003Z,86.88
2023-01-27T00:41:21.327Z,84.60
2023-01-27T00:45:41.743Z,91.38
2023-01-27T00:49:43.647Z,83.75
2023-01-27T00:53:46.129Z,83.32
2023-01-27T00:57:47.883Z,94.20
2023-01-27T01:01:49.930Z,89.40
2023-01-27T01:05:52.548Z,93.65
2023-01-27T01:09:54.325Z,95.38
2023-01-27T01:13:57.265Z,101.95
2023-01-27T01:17:59.247Z,105.90
2023-01-27T01:22:00.894Z,104.28
2023-01-27T01:26:02.929Z,99.43
2023-01-27T01:30:05.096Z,105.22
2023-01-27T01:34:07.321Z,101.15
2023-01-27T01:38:09.884Z,108.50
2023-01-27T01:42:11.644Z,97.18
2023-01-27T01:46:14.092Z,103.07
2023-01-27T01:50:16.232Z,102.55
2023-01-27T01:54:38.665Z,112.82
2023-01-27T02:02:46.700Z,119.18
2023-01-27T02:07:11.176Z,110.88
2023-01-27T02:11:13.368Z,117.13
2023-01-27T02:15:15.935Z,118.95
2023-01-27T02:19:53.814Z,115.00
2023-01-27T02:24:01.556Z,119.05
2023-01-27T02:32:06.953Z,114.30
2023-01-27T02:36:13.343Z,124.63
2023-01-27T02:40:17.265Z,106.32
2023-01-27T02:44:19.440Z,117.00
2023-01-27T02:48:21.411Z,123.22
2023-01-27T02:52:23.475Z,116.97
2023-01-27T02:56:26.955Z,111.38
2023-01-27T03:00:31.084Z,113.70
2023-01-27T03:04:33.195Z,124.63
2023-01-27T03:08:35.205Z,118.50
2023-01-27T03:12:39.937Z,117.20
2023-01-27T03:17:00.402Z,123.72
2023-01-27T03:21:04.925Z,123.30
2023-01-27T03:25:07.570Z,120.00
2023-01-27T03:29:28.883Z,118.78
2023-01-27T03:33:31.462Z,110.40
2023-01-27T03:37:55.995Z,120.28
2023-01-27T03:42:16.384Z,119.85
2023-01-27T03:46:19.086Z,136.13
2023-01-27T03:50:37.364Z,139.23
2023-01-27T03:54:39.371Z,128.23
2023-01-27T03:58:42.102Z,120.57
2023-01-27T04:03:02.801Z,112.90
2023-01-27T04:07:04.812Z,110.35
2023-01-27T04:11:25.498Z,113.80
2023-01-27T04:15:27.481Z,112.45
2023-01-27T04:19:30.388Z,114.63
2023-01-27T04:23:32.323Z,122.75
2023-01-27T04:27:34.505Z,140.40
2023-01-27T04:31:36.513Z,155.18
2023-01-27T04:35:38.851Z,138.60
2023-01-27T04:39:41.932Z,129.23
2023-01-27T04:43:43.896Z,115.80
2023-01-27T04:47:45.601Z,113.38
2023-01-27T04:51:47.811Z,106.63
2023-01-27T04:55:50.819Z,129.00
2023-01-27T04:59:52.413Z,109.63
2023-01-27T05:03:55.439Z,110.15
2023-01-27T05:07:57.407Z,105.03
2023-01-27T05:11:59.329Z,102.80
2023-01-27T05:16:08.540Z,108.95
2023-01-27T05:20:10.858Z,108.13
2023-01-27T05:24:12.926Z,116.97
2023-01-27T05:28:14.995Z,111.28
2023-01-27T05:32:16.899Z,101.10
2023-01-27T05:36:21.495Z,106.93
2023-01-27T05:40:23.213Z,118.18
2023-01-27T05:44:25.206Z,116.75
2023-01-27T05:48:27.293Z,101.30
2023-01-27T05:52:29.003Z,121.90
2023-01-27T05:56:30.997Z,116.00
2023-01-27T06:00:33.315Z,115.50
2023-01-27T06:04:35.422Z,116.30
2023-01-27T06:08:40.021Z,110.88
2023-01-27T06:12:41.666Z,115.10
2023-01-27T06:16:44.152Z,121.57
2023-01-27T06:20:46.796Z,122.20
2023-01-27T06:24:48.488Z,117.95
2023-01-27T06:28:50.497Z,128.02
2023-01-27T06:32:52.548Z,152.95
2023-01-27T06:36:54.484Z,124.53
2023-01-27T06:40:56.538Z,130.32
2023-01-27T06:44:58.222Z,118.15
2023-01-27T06:49:00.162Z,114.40
2023-01-27T06:53:05.210Z,120.13
2023-01-27T06:57:09.480Z,120.75
2023-01-27T07:01:11.912Z,107.90
2023-01-27T07:05:14.014Z,117.72
2023-01-27T07:09:15.699Z,116.78
2023-01-27T07:13:18.827Z,114.80
2023-01-27T07:17:20.870Z,109.35
2023-01-27T07:21:22.999Z,110.43
2023-01-27T07:25:25.722Z,114.15
2023-01-27T07:29:27.865Z,105.95
2023-01-27T07:33:29.851Z,104.63
2023-01-27T07:37:32.104Z,99.75
2023-01-27T07:41:34.536Z,100.43
2023-01-27T07:45:37.286Z,102.05
2023-01-27T07:49:39.265Z,93.00
2023-01-27T07:53:41.923Z,81.78
2023-01-27T07:57:43.881Z,78.55
2023-01-27T08:01:48.118Z,86.90
2023-01-27T08:05:50.900Z,83.07
2023-01-27T08:09:54.881Z,83.65
2023-01-27T08:13:56.849Z,69.93
2023-01-27T08:17:59.571Z,67.57
2023-01-27T08:22:01.548Z,63.13
2023-01-27T08:26:06.428Z,64.68
2023-01-27T08:30:09.216Z,62.22
2023-01-27T08:34:12.025Z,66.13
2023-01-27T08:38:16.799Z,49.60
2023-01-27T08:42:18.954Z,52.70
2023-01-27T08:46:21.302Z,60.20
2023-01-27T08:50:23.334Z,67.72
2023-01-27T08:54:25.370Z,67.43
2023-01-27T08:58:27.512Z,83.57
2023-01-27T09:02:29.601Z,62.58
2023-01-27T09:06:31.693Z,87.65
2023-01-27T09:10:37.886Z,68.82
2023-01-27T09:14:40.254Z,61.35
2023-01-27T09:18:42.497Z,58.70
2023-01-27T09:22:44.562Z,63.38
2023-01-27T09:26:46.747Z,64.65
2023-01-27T09:30:49.751Z,68.40
2023-01-27T09:34:51.885Z,66.85
2023-01-27T09:39:00.231Z,61.22
2023-01-27T09:47:47.615Z,61.72
2023-01-27T09:52:08.343Z,64.57
2023-01-27T09:56:38.548Z,58.38
2023-01-27T10:01:18.727Z,54.88
2023-01-27T10:05:33.271Z,54.97
2023-01-27T10:10:09.299Z,56.67
2023-01-27T10:14:39.535Z,44.33
2023-01-27T10:19:33.814Z,45.67
2023-01-27T10:24:14.990Z,50.90
2023-01-27T10:28:22.580Z,53.05
2023-01-27T10:32:34.879Z,49.53
2023-01-27T10:36:55.998Z,49.42
2023-01-27T10:41:16.949Z,52.55
2023-01-27T10:45:27.816Z,48.65
2023-01-27T10:49:38.198Z,46.63
2023-01-27T10:53:57.508Z,83.78
2023-01-27T10:58:25.637Z,45.33
2023-01-27T11:02:45.752Z,37.38
2023-01-27T11:06:49.972Z,39.83
2023-01-27T11:11:24.184Z,45.05
2023-01-27T11:15:34.352Z,50.95
2023-01-27T11:19:55.578Z,58.72
2023-01-27T11:24:06.210Z,66.75
2023-01-27T11:28:30.079Z,49.80
2023-01-27T11:32:53.445Z,53.40
2023-01-27T11:36:55.567Z,66.72
2023-01-27T11:40:58.353Z,57.90
2023-01-27T11:45:01.653Z,57.60
2023-01-27T11:49:04.320Z,227.32
2023-01-27T11:53:22.004Z,109.55
2023-01-27T11:57:26.173Z,87.20
2023-01-27T12:02:15.497Z,68.75
2023-01-27T12:06:29.663Z,67.18
2023-01-27T12:10:31.644Z,67.65
2023-01-27T12:14:33.682Z,63.33
2023-01-27T12:18:47.220Z,71.72
2023-01-27T12:22:54.396Z,69.28
2023-01-27T12:26:57.379Z,70.20
2023-01-27T12:31:12.505Z,68.75
2023-01-27T12:35:32.797Z,65.28
2023-01-27T12:39:50.330Z,54.25
2023-01-27T12:43:57.227Z,68.60
2023-01-27T12:48:15.948Z,56.78
2023-01-27T12:56:23.709Z,67.18
2023-01-27T13:00:26.246Z,73.72
2023-01-27T13:04:29.035Z,93.50
2023-01-27T13:08:33.488Z,81.78
2023-01-27T13:12:49.841Z,85.00
2023-01-27T13:16:54.590Z,94.80
2023-01-27T13:21:07.466Z,107.50
2023-01-27T13:25:17.664Z,99.30
2023-01-27T13:29:26.880Z,96.78
2023-01-27T13:33:50.127Z,80.82
2023-01-27T13:38:19.791Z,99.43
2023-01-27T13:42:24.628Z,98.75
2023-01-27T13:46:30.658Z,95.60
2023-01-27T13:50:37.845Z,134.30
2023-01-27T13:54:39.844Z,109.25
2023-01-27T13:58:57.493Z,119.60
2023-01-27T14:03:24.511Z,112.47
2023-01-27T14:07:29.823Z,115.57
2023-01-27T14:11:43.011Z,136.70
2023-01-27T14:16:16.389Z,122.88
2023-01-27T14:20:24.865Z,129.02
2023-01-27T14:24:29.560Z,116.18
2023-01-27T14:29:12.558Z,115.55
2023-01-27T14:33:27.611Z,128.52
2023-01-27T14:37:32.723Z,125.47
2023-01-27T14:41:44.079Z,145.60
2023-01-27T14:45:53.685Z,140.52
2023-01-27T14:50:04.595Z,133.82
2023-01-27T14:54:27.570Z,143.27
2023-01-27T14:58:39.651Z,136.55
2023-01-27T15:02:51.093Z,145.98
2023-01-27T15:07:05.323Z,129.38
2023-01-27T15:11:26.797Z,145.85
2023-01-27T15:15:51.571Z,167.43
2023-01-27T15:20:25.186Z,154.90
2023-01-27T15:24:35.920Z,134.85
2023-01-27T15:28:41.488Z,129.38
2023-01-27T15:32:43.523Z,143.25
2023-01-27T15:37:09.585Z,147.20
2023-01-27T15:41:14.852Z,139.32
2023-01-27T15:45:33.816Z,142.45
2023-01-27T15:49:43.906Z,168.15
2023-01-27T15:53:50.941Z,154.75
2023-01-27T15:58:02.880Z,135.65
2023-01-27T16:02:17.335Z,139.25
2023-01-27T16:06:25.106Z,139.05
2023-01-27T16:10:31.496Z,141.48
2023-01-27T16:14:44.474Z,141.82
2023-01-27T16:18:57.493Z,149.77
2023-01-27T16:23:07.197Z,150.45
2023-01-27T16:27:29.402Z,153.80
2023-01-27T16:31:32.513Z,155.95
2023-01-27T16:35:44.136Z,156.13
2023-01-27T16:40:01.103Z,164.93
2023-01-27T16:44:22.319Z,137.88
2023-01-27T16:48:30.086Z,142.57
2023-01-27T16:52:41.826Z,103.90
2023-01-27T16:56:49.723Z,146.73
2023-01-27T17:00:52.989Z,152.00
2023-01-27T17:04:59.095Z,146.15
2023-01-27T17:09:02.457Z,174.50
2023-01-27T17:13:04.400Z,162.20
2023-01-27T17:17:19.356Z,151.00
2023-01-27T17:21:39.105Z,172.80
2023-01-27T17:25:41.717Z,168.88
2023-01-27T17:29:46.337Z,176.57
2023-01-27T17:33:50.564Z,181.55
2023-01-27T17:38:05.234Z,192.95
2023-01-27T17:42:08.065Z,188.88
2023-01-27T17:46:19.523Z,172.35
2023-01-27T17:50:24.607Z,212.13
2023-01-27T17:54:30.220Z,202.45
2023-01-27T17:58:32.374Z,192.25
2023-01-27T18:02:39.025Z,207.13
2023-01-27T18:06:42.633Z,234.15
2023-01-27T18:10:44.834Z,209.18
2023-01-27T18:14:46.941Z,194.63
2023-01-27T18:18:49.872Z,200.13
2023-01-27T18:22:52.046Z,191.98
2023-01-27T18:26:54.104Z,207.20
2023-01-27T18:30:56.186Z,205.10
2023-01-27T18:34:58.921Z,212.40
2023-01-27T18:39:29.001Z,200.10
2023-01-27T18:43:30.871Z,194.05
2023-01-27T18:47:34.897Z,194.05
2023-01-27T18:51:36.834Z,184.88
2023-01-27T18:55:39.176Z,200.20
2023-01-27T18:59:41.264Z,206.15
2023-01-27T19:03:42.989Z,192.32
2023-01-27T19:07:45.149Z,203.23
2023-01-27T19:11:46.980Z,200.50
2023-01-27T19:15:51.505Z,196.88
2023-01-27T19:19:54.455Z,202.93
2023-01-27T19:23:56.724Z,181.60
2023-01-27T19:28:04.421Z,181.52
2023-01-27T19:32:07.170Z,197.27
2023-01-27T19:36:12.046Z,193.30
2023-01-27T19:40:17.770Z,208.90
2023-01-27T19:44:19.879Z,200.90
2023-01-27T19:48:24.433Z,195.32
2023-01-27T19:52:26.637Z,234.35
2023-01-27T19:56:32.558Z,205.15
2023-01-27T20:00:36.873Z,205.55
2023-01-27T20:04:38.920Z,204.27
2023-01-27T20:08:40.943Z,194.88
2023-01-27T20:12:43.391Z,186.73
2023-01-27T20:16:46.508Z,190.60
2023-01-27T20:20:48.448Z,211.63
2023-01-27T20:24:50.708Z,188.05
2023-01-27T20:28:52.673Z,192.80
2023-01-27T20:32:56.537Z,173.40
2023-01-27T20:36:58.663Z,174.85
2023-01-27T20:41:09.056Z,185.02
2023-01-27T20:45:12.264Z,174.40
2023-01-27T20:49:14.466Z,173.43
2023-01-27T20:53:16.405Z,168.15
2023-01-27T20:57:20.998Z,155.23
2023-01-27T21:01:23.844Z,172.82
2023-01-27T21:05:27.011Z,162.85
2023-01-27T21:09:28.961Z,184.55
2023-01-27T21:13:31.112Z,176.20
2023-01-27T21:17:33.082Z,147.70
2023-01-27T21:21:35.074Z,141.95
2023-01-27T21:25:37.359Z,164.10
2023-01-27T21:29:40.754Z,154.90
2023-01-27T21:33:48.471Z,152.75
2023-01-27T21:37:50.618Z,156.98
2023-01-27T21:41:52.538Z,147.65
2023-01-27T21:46:01.185Z,136.95
2023-01-27T21:50:04.385Z,137.75
2023-01-27T21:54:06.544Z,130.50
2023-01-27T21:58:08.196Z,126.10
2023-01-27T22:02:15.573Z,121.07
2023-01-27T22:06:17.373Z,113.05
2023-01-27T22:10:23.258Z,120.03
2023-01-27T22:14:25.222Z,118.28
2023-01-27T22:18:27.516Z,125.78
2023-01-27T22:22:29.123Z,119.18
2023-01-27T22:26:31.116Z,119.25
2023-01-27T22:30:33.220Z,114.50
2023-01-27T22:34:35.267Z,120.28
2023-01-27T22:38:38.745Z,106.03
2023-01-27T22:42:40.984Z,107.68
2023-01-27T22:46:43.865Z,116.93
2023-01-27T22:50:45.905Z,118.22
2023-01-27T22:54:48.103Z,107.47
2023-01-27T22:58:50.146Z,118.10
2023-01-27T23:02:52.125Z,113.70
2023-01-27T23:06:54.200Z,103.53
2023-01-27T23:11:00.991Z,108.85
2023-01-27T23:15:03.059Z,108.10
2023-01-27T23:19:05.130Z,115.25
2023-01-27T23:23:08.561Z,100.15
2023-01-27T23:27:10.549Z,108.93
2023-01-27T23:31:13.662Z,111.85
2023-01-27T23:35:15.934Z,97.35
2023-01-27T23:39:18.152Z,104.75
2023-01-27T23:43:23.820Z,101.22
2023-01-27T23:47:25.834Z,106.43
2023-01-27T23:51:27.777Z,107.50
2023-01-27T23:55:29.820Z,105.50
2023-01-27T23:59:31.826Z,106.35
